createdAt,value
2019-05-15T00:04:59.280Z,46.44
2019-05-15T00:10:23.024Z,46.39
2019-05-15T00:15:47.989Z,46.91
2019-05-15T00:21:10.743Z,46.78
2019-05-15T00:26:33.805Z,47.42
2019-05-15T00:31:58.908Z,47.30
2019-05-15T00:37:21.343Z,47.50
2019-05-15T00:42:44.781Z,47.62
2019-05-15T00:48:09.085Z,47.89
2019-05-15T00:53:32.406Z,48.17
2019-05-15T00:58:55.818Z,48.38
2019-05-15T01:04:18.924Z,49.02
2019-05-15T01:09:42.346Z,48.80
2019-05-15T01:15:09.679Z,49.10
2019-05-15T01:20:32.918Z,49.47
2019-05-15T01:25:58.715Z,49.66
2019-05-15T01:31:21.284Z,49.66
2019-05-15T01:36:44.600Z,49.93
2019-05-15T01:42:08.403Z,50.04
2019-05-15T01:47:32.119Z,50.22
2019-05-15T01:52:55.223Z,50.75
2019-05-15T01:58:19.058Z,50.62
2019-05-15T02:03:42.321Z,50.89
2019-05-15T02:09:08.290Z,50.88
2019-05-15T02:14:31.931Z,51.20
2019-05-15T02:19:55.468Z,51.29
2019-05-15T02:25:18.612Z,51.42
2019-05-15T02:30:41.733Z,51.56
2019-05-15T02:36:04.494Z,51.83
2019-05-15T02:41:29.870Z,52.18
2019-05-15T02:46:53.539Z,52.00
2019-05-15T02:52:19.638Z,52.76
2019-05-15T02:57:41.390Z,53.05
2019-05-15T03:03:04.919Z,53.46
2019-05-15T03:08:29.821Z,53.76
2019-05-15T03:13:53.836Z,53.66
2019-05-15T03:19:19.242Z,54.07
2019-05-15T03:24:41.931Z,54.18
2019-05-15T03:30:12.211Z,54.40
2019-05-15T03:35:33.017Z,54.23
2019-05-15T03:40:59.313Z,54.89
2019-05-15T03:46:20.627Z,54.30
2019-05-15T03:51:45.923Z,54.54
2019-05-15T03:57:09.868Z,54.94
2019-05-15T04:02:33.429Z,54.71
2019-05-15T04:07:59.528Z,54.87
2019-05-15T04:13:21.434Z,54.75
2019-05-15T04:18:44.123Z,53.88
2019-05-15T04:24:09.520Z,54.31
2019-05-15T04:29:33.352Z,54.03
2019-05-15T04:34:59.372Z,54.12
2019-05-15T04:40:22.064Z,54.10
2019-05-15T04:45:45.315Z,53.72
2019-05-15T04:51:09.741Z,53.54
2019-05-15T04:56:32.823Z,53.10
2019-05-15T05:02:12.931Z,52.82
2019-05-15T05:07:21.479Z,52.64
2019-05-15T05:12:44.898Z,52.42
2019-05-15T05:18:09.646Z,51.73
2019-05-15T05:23:31.968Z,51.62
2019-05-15T05:28:55.229Z,50.49
2019-05-15T05:34:19.358Z,50.03
2019-05-15T05:39:43.017Z,50.01
2019-05-15T05:45:09.219Z,49.54
2019-05-15T05:50:38.503Z,49.54
2019-05-15T05:56:02.080Z,49.32
2019-05-15T06:01:28.128Z,48.93
2019-05-15T06:07:06.051Z,48.57
2019-05-15T06:12:15.083Z,48.63
2019-05-15T06:17:39.326Z,48.00
2019-05-15T06:23:02.880Z,47.48
2019-05-15T06:28:28.666Z,47.31
2019-05-15T06:33:50.342Z,47.07
2019-05-15T06:39:13.505Z,47.02
2019-05-15T06:44:38.810Z,45.99
2019-05-15T06:50:02.867Z,45.90
2019-05-15T06:55:26.311Z,45.17
2019-05-15T07:00:49.884Z,44.08
2019-05-15T07:06:13.201Z,43.47
2019-05-15T07:11:38.773Z,40.91
2019-05-15T07:17:01.652Z,39.75
2019-05-15T07:22:25.276Z,38.27
2019-05-15T07:27:48.532Z,37.02
2019-05-15T07:33:11.402Z,36.48
2019-05-15T07:38:34.745Z,36.35
2019-05-15T07:43:58.582Z,34.92
2019-05-15T07:49:22.510Z,34.25
2019-05-15T07:54:45.769Z,33.14
2019-05-15T08:00:18.748Z,33.53
2019-05-15T08:05:54.941Z,32.69
2019-05-15T08:11:17.574Z,33.06
2019-05-15T08:16:32.099Z,33.21
2019-05-15T08:21:55.371Z,33.03
2019-05-15T08:27:19.203Z,33.12
2019-05-15T08:32:42.826Z,33.50
2019-05-15T08:38:08.657Z,33.43
2019-05-15T08:43:31.555Z,32.89
2019-05-15T08:48:54.941Z,32.81
2019-05-15T08:54:18.675Z,33.37
2019-05-15T08:59:42.423Z,32.13
2019-05-15T09:05:08.670Z,30.74
2019-05-15T09:10:32.467Z,30.13
2019-05-15T09:15:58.699Z,29.21
2019-05-15T09:21:21.055Z,29.47
2019-05-15T09:26:44.663Z,29.22
2019-05-15T09:32:09.354Z,29.14
2019-05-15T09:37:33.741Z,29.33
2019-05-15T09:42:57.922Z,29.20
2019-05-15T09:48:21.039Z,29.79
2019-05-15T09:53:44.288Z,30.16
2019-05-15T09:59:08.953Z,30.38
2019-05-15T10:04:32.964Z,30.29
2019-05-15T10:09:56.502Z,30.42
2019-05-15T10:15:20.689Z,29.94
2019-05-15T10:20:43.986Z,30.29
2019-05-15T10:26:13.558Z,29.96
2019-05-15T10:31:32.798Z,30.30
2019-05-15T10:36:58.763Z,30.27
2019-05-15T10:42:21.333Z,31.14
2019-05-15T10:47:45.134Z,31.02
2019-05-15T10:53:11.305Z,31.71
2019-05-15T10:58:34.087Z,32.19
2019-05-15T11:03:58.945Z,33.21
2019-05-15T11:09:22.392Z,33.32
2019-05-15T11:14:46.260Z,32.80
2019-05-15T11:20:10.268Z,33.00
2019-05-15T11:25:33.693Z,33.29
2019-05-15T11:30:59.181Z,33.31
2019-05-15T11:36:22.594Z,33.36
2019-05-15T11:41:49.011Z,33.84
2019-05-15T11:47:10.683Z,33.83
2019-05-15T11:52:36.633Z,33.24
2019-05-15T11:57:59.415Z,31.66
2019-05-15T12:03:24.973Z,30.86
2019-05-15T12:08:47.927Z,31.10
2019-05-15T12:14:24.937Z,31.75
2019-05-15T12:19:54.860Z,30.68
2019-05-15T12:25:13.276Z,28.34
2019-05-15T12:30:39.689Z,30.10
2019-05-15T12:36:01.196Z,30.67
2019-05-15T13:03:03.470Z,31.34
2019-05-15T13:08:29.131Z,31.46
2019-05-15T13:13:51.607Z,32.62
2019-05-15T13:19:15.053Z,33.36
2019-05-15T13:24:38.700Z,34.30
2019-05-15T13:30:01.906Z,35.48
2019-05-15T13:35:25.259Z,38.54
2019-05-15T13:40:48.931Z,40.61
2019-05-15T13:46:12.660Z,43.76
2019-05-15T13:51:38.190Z,47.93
2019-05-15T13:57:00.377Z,48.70
2019-05-15T14:02:24.056Z,49.92
2019-05-15T14:07:53.393Z,53.41
2019-05-15T14:13:14.660Z,49.77
2019-05-15T14:18:39.023Z,51.19
2019-05-15T14:24:02.563Z,49.14
2019-05-15T14:29:28.956Z,47.43
2019-05-15T14:34:51.249Z,47.63
2019-05-15T14:40:14.329Z,47.02
2019-05-15T14:45:38.912Z,45.56
2019-05-15T14:51:02.041Z,46.44
2019-05-15T14:56:25.338Z,43.97
2019-05-15T15:01:48.853Z,42.15
2019-05-15T15:07:12.866Z,41.04
2019-05-15T15:12:39.106Z,40.83
2019-05-15T15:18:01.209Z,40.23
2019-05-15T15:23:24.359Z,40.21
2019-05-15T15:29:04.229Z,41.23
2019-05-15T15:34:28.327Z,41.77
2019-05-15T15:39:52.019Z,41.66
2019-05-15T15:45:15.765Z,41.63
2019-05-15T15:50:39.404Z,41.58
2019-05-15T15:56:02.693Z,41.14
2019-05-15T16:01:28.496Z,41.63
2019-05-15T16:06:50.857Z,42.06
2019-05-15T16:12:13.711Z,41.89
2019-05-15T16:17:38.431Z,41.88
2019-05-15T16:23:01.604Z,41.37
2019-05-15T16:28:24.534Z,40.76
2019-05-15T16:33:48.137Z,40.14
2019-05-15T16:39:12.107Z,40.92
2019-05-15T16:44:35.097Z,40.92
2019-05-15T16:49:58.800Z,42.17
2019-05-15T16:55:21.832Z,42.51
2019-05-15T17:00:44.924Z,42.87
2019-05-15T17:06:09.473Z,43.51
2019-05-15T17:11:33.128Z,43.67
2019-05-15T17:16:58.697Z,44.16
2019-05-15T17:22:21.835Z,44.72
2019-05-15T17:27:44.433Z,45.51
2019-05-15T17:33:08.688Z,46.14
2019-05-15T17:38:31.251Z,47.23
2019-05-15T17:43:55.190Z,48.29
2019-05-15T17:49:18.396Z,49.11
2019-05-15T17:54:44.487Z,50.79
2019-05-15T18:00:12.517Z,55.54
2019-05-15T18:05:34.516Z,57.16
2019-05-15T18:10:58.697Z,57.49
2019-05-15T18:16:22.576Z,59.24
2019-05-15T18:21:46.299Z,59.93
2019-05-15T18:27:09.627Z,59.97
2019-05-15T18:32:33.630Z,59.51
2019-05-15T18:37:58.875Z,59.63
2019-05-15T18:43:21.336Z,58.63
2019-05-15T18:48:44.929Z,57.34
2019-05-15T18:54:08.613Z,57.13
2019-05-15T18:59:31.890Z,56.63
2019-05-15T19:04:58.746Z,56.27
2019-05-15T19:10:20.270Z,56.49
2019-05-15T19:15:43.650Z,56.33
2019-05-15T19:21:07.984Z,56.33
2019-05-15T19:26:32.230Z,55.99
2019-05-15T19:31:55.189Z,55.70
2019-05-15T19:37:18.825Z,55.57
2019-05-15T19:42:42.149Z,55.59
2019-05-15T19:48:05.304Z,55.48
2019-05-15T19:53:28.914Z,55.63
2019-05-15T19:58:52.726Z,56.01
2019-05-15T20:04:18.533Z,55.44
2019-05-15T20:09:42.293Z,55.23
2019-05-15T20:15:09.186Z,55.06
2019-05-15T20:20:33.069Z,54.79
2019-05-15T20:25:57.672Z,54.15
2019-05-15T20:31:20.782Z,53.18
2019-05-15T20:36:43.899Z,53.42
2019-05-15T20:42:08.817Z,53.04
2019-05-15T20:47:32.799Z,52.47
2019-05-15T20:52:58.904Z,52.89
2019-05-15T20:58:22.138Z,52.63
2019-05-15T21:03:50.474Z,52.28
2019-05-15T21:09:11.017Z,51.96
2019-05-15T21:14:39.812Z,52.05
2019-05-15T21:20:01.109Z,51.83
2019-05-15T21:25:25.261Z,51.27
2019-05-15T21:30:49.572Z,50.94
2019-05-15T21:36:12.942Z,51.08
2019-05-15T21:41:38.529Z,51.20
2019-05-15T21:47:01.137Z,50.93
2019-05-15T21:52:24.525Z,51.36
2019-05-15T21:57:47.737Z,50.69
2019-05-15T22:03:10.845Z,50.71
2019-05-15T22:08:34.235Z,50.68
2019-05-15T22:13:58.745Z,50.28
2019-05-15T22:19:21.726Z,50.32
2019-05-15T22:24:44.412Z,50.86
2019-05-15T22:30:08.709Z,51.05
2019-05-15T22:35:32.651Z,50.98
2019-05-15T22:40:56.218Z,51.10
2019-05-15T22:46:19.944Z,51.24
2019-05-15T22:51:43.763Z,51.21
2019-05-15T22:57:07.039Z,51.62
2019-05-15T23:02:30.563Z,53.11
2019-05-15T23:07:54.009Z,54.56
2019-05-15T23:13:17.848Z,57.17
2019-05-15T23:18:40.781Z,59.13
2019-05-15T23:24:04.439Z,60.25
2019-05-15T23:29:27.528Z,61.89
2019-05-15T23:34:51.286Z,62.89
2019-05-15T23:40:14.658Z,62.57
2019-05-15T23:45:38.979Z,63.62
2019-05-15T23:51:02.550Z,64.07
2019-05-15T23:56:28.854Z,63.68
